Time;durP1;ratioP1;P1;durP2;ratioP2;P2;SDS_P1;SDS_P2;PMS_P1;PMS_P2;Temp;Humidity;BMP_temperature;BMP_pressure;BME280_temperature;BME280_humidity;BME280_pressure;Samples;Min_cycle;Max_cycle;Signal;HPM_P1;HPM_P2
2022/06/02 00:02:33;;;;;;;2.08;1.30;;;;;;;21.56;45.56;101469.38;5049617;28;20469;-43
2022/06/02 00:05:23;;;;;;;1.35;1.27;;;;;;;21.55;45.09;101476.31;5032650;28;20044;-43
2022/06/02 00:08:02;;;;;;;0.90;0.90;;;;;;;21.55;45.25;101473.72;5034188;28;20466;-45
2022/06/02 00:10:49;;;;;;;1.40;1.20;;;;;;;21.56;45.01;101470.22;5033484;28;20124;-43
2022/06/02 00:13:20;;;;;;;2.25;1.05;;;;;;;21.55;45.19;101468.47;5041356;28;20488;-43
2022/06/02 00:15:52;;;;;;;0.70;0.70;;;;;;;21.56;45.14;101469.38;5048031;28;20398;-44
2022/06/02 00:18:50;;;;;;;0.93;0.93;;;;;;;21.56;45.10;101467.59;5044172;28;20041;-44
2022/06/02 00:21:31;;;;;;;1.48;1.40;;;;;;;21.55;44.98;101468.47;5030929;28;20116;-43
2022/06/02 00:24:18;;;;;;;1.08;1.00;;;;;;;21.57;44.86;101472.00;5054673;28;20068;-43
2022/06/02 00:27:06;;;;;;;0.88;0.88;;;;;;;21.57;44.94;101477.25;5020562;28;20111;-44
2022/06/02 00:29:42;;;;;;;1.67;0.63;;;;;;;21.56;44.81;101470.22;5037434;28;20039;-46
2022/06/02 00:32:26;;;;;;;0.85;0.85;;;;;;;21.53;44.90;101467.56;5017556;28;20037;-44
2022/06/02 00:35:03;;;;;;;0.90;0.82;;;;;;;21.56;44.91;101475.47;5044496;28;20481;-47
2022/06/02 00:37:59;;;;;;;1.23;0.90;;;;;;;21.54;44.92;101471.94;5035385;28;20044;-46
2022/06/02 00:40:27;;;;;;;0.70;0.70;;;;;;;21.57;44.67;101482.47;5047689;28;20032;-45
2022/06/02 00:43:10;;;;;;;0.80;0.80;;;;;;;21.56;44.93;101480.72;5034967;28;20495;-43
2022/06/02 00:45:40;;;;;;;0.90;0.90;;;;;;;21.56;45.10;101480.72;5054890;28;20032;-42
2022/06/02 00:48:27;;;;;;;0.70;0.70;;;;;;;21.54;45.01;101474.56;5021027;28;20037;-44
2022/06/02 00:50:54;;;;;;;1.58;0.95;;;;;;;21.57;45.18;101487.72;5054821;28;20037;-44
2022/06/02 00:53:19;;;;;;;1.02;1.02;;;;;;;21.58;44.74;101478.13;5033757;28;20072;-43
2022/06/02 00:59:32;;;;;;;2.10;0.95;;;;;;;21.57;44.82;101487.72;5044419;28;20031;-45
2022/06/02 01:01:58;;;;;;;2.45;1.23;;;;;;;21.56;44.76;101496.44;5034230;28;20037;-44
2022/06/02 01:04:23;;;;;;;0.90;0.90;;;;;;;21.56;44.93;101496.44;5034199;28;20032;-44
2022/06/02 01:06:59;;;;;;;1.80;0.95;;;;;;;21.57;45.05;101497.34;5021334;28;20033;-42
2022/06/02 01:10:02;;;;;;;1.30;1.20;;;;;;;21.56;45.02;101501.69;5049333;28;20385;-46
2022/06/02 01:12:47;;;;;;;1.13;1.10;;;;;;;21.56;44.93;101504.31;5050748;28;20047;-42
2022/06/02 01:15:36;;;;;;;1.70;1.02;;;;;;;21.56;44.79;101506.94;5034638;28;20029;-43
2022/06/02 01:18:11;;;;;;;1.42;1.08;;;;;;;21.56;44.81;101506.94;5053835;28;20043;-42
2022/06/02 01:20:52;;;;;;;1.70;0.93;;;;;;;21.57;44.99;101508.69;5036426;28;20040;-44
2022/06/02 01:23:43;;;;;;;0.68;0.68;;;;;;;21.57;45.07;101511.31;5036306;28;20116;-41
2022/06/02 01:26:33;;;;;;;0.90;0.80;;;;;;;21.56;44.68;101517.41;5047652;28;20493;-41
2022/06/02 01:29:04;;;;;;;1.38;0.77;;;;;;;21.57;44.74;101508.69;5019940;28;20099;-44
2022/06/02 01:31:44;;;;;;;1.20;1.10;;;;;;;21.57;44.81;101508.69;5052988;28;20029;-42
2022/06/02 01:34:21;;;;;;;0.90;0.90;;;;;;;21.56;44.82;101506.94;5054307;28;20095;-42
2022/06/02 01:36:49;;;;;;;0.85;0.85;;;;;;;21.57;44.75;101511.31;5033808;28;20035;-43
2022/06/02 01:39:44;;;;;;;1.05;0.95;;;;;;;21.56;44.69;101512.16;5036853;28;20036;-44
2022/06/02 01:42:49;;;;;;;0.90;0.90;;;;;;;21.57;44.74;101519.19;5022326;28;20045;-46
2022/06/02 01:45:33;;;;;;;0.93;0.93;;;;;;;21.57;44.80;101513.94;5012174;28;20282;-43
2022/06/02 01:48:48;;;;;;;0.93;0.85;;;;;;;21.56;44.76;101522.66;5020362;28;20053;-41
2022/06/02 01:51:28;;;;;;;3.50;1.30;;;;;;;21.56;44.55;101517.41;5022974;28;20048;-42
2022/06/02 01:54:00;;;;;;;0.85;0.85;;;;;;;21.53;44.71;101512.13;5034546;28;20033;-42
2022/06/02 01:56:36;;;;;;;1.17;1.02;;;;;;;21.56;44.74;101520.03;5052629;28;20029;-42
2022/06/02 01:59:11;;;;;;;0.75;0.75;;;;;;;21.54;44.67;101519.13;5035204;28;20094;-42
2022/06/02 02:02:26;;;;;;;0.73;0.73;;;;;;;21.56;44.68;101517.41;5035381;28;20033;-42
2022/06/02 02:05:03;;;;;;;0.70;0.70;;;;;;;21.56;44.69;101516.53;5017914;28;20196;-45
2022/06/02 02:08:04;;;;;;;0.90;0.90;;;;;;;21.56;44.63;101522.66;5053695;28;20040;-43
2022/06/02 02:11:08;;;;;;;1.67;1.35;;;;;;;21.54;44.50;101519.13;5035231;28;20025;-42
2022/06/02 02:13:49;;;;;;;1.02;1.02;;;;;;;21.55;45.05;101520.88;5035520;28;20021;-42
2022/06/02 02:16:38;;;;;;;1.50;1.02;;;;;;;21.56;44.43;101527.88;5051510;28;20115;-41
2022/06/02 02:19:39;;;;;;;1.38;1.15;;;;;;;21.56;44.68;101525.28;5035737;28;20021;-45
2022/06/02 02:22:18;;;;;;;1.35;1.25;;;;;;;21.50;44.52;101517.31;5052738;28;20037;-42
2022/06/02 02:25:22;;;;;;;0.73;0.70;;;;;;;21.56;44.44;101527.03;5034234;28;20116;-45
2022/06/02 02:28:19;;;;;;;0.80;0.80;;;;;;;21.53;44.40;101527.84;4991039;28;20038;-41
2022/06/02 02:30:44;;;;;;;0.85;0.85;;;;;;;21.57;44.63;101544.53;4974098;28;20069;-42
2022/06/02 02:33:34;;;;;;;0.70;0.70;;;;;;;21.55;44.52;101541.84;5028296;28;20080;-44
2022/06/02 02:36:18;;;;;;;1.08;0.95;;;;;;;21.56;44.48;101533.13;5033365;28;20028;-41
2022/06/02 02:39:05;;;;;;;0.90;0.90;;;;;;;21.55;44.21;101531.38;5034395;28;20124;-44
2022/06/02 02:41:56;;;;;;;0.60;0.60;;;;;;;21.56;44.14;101527.88;5050295;28;20056;-42
2022/06/02 02:44:28;;;;;;;1.08;0.98;;;;;;;21.56;44.43;101530.50;5049198;28;20493;-45
2022/06/02 02:47:09;;;;;;;1.30;1.20;;;;;;;21.56;44.47;101543.63;5028772;28;20037;-42
2022/06/02 02:49:46;;;;;;;0.98;0.77;;;;;;;21.55;44.31;101531.38;5052441;28;20420;-42
2022/06/02 02:52:32;;;;;;;1.00;1.00;;;;;;;21.56;44.31;101533.13;5015257;28;20536;-44
2022/06/02 02:55:13;;;;;;;2.75;0.90;;;;;;;21.53;44.30;101538.31;5029494;28;20040;-46
2022/06/02 02:58:09;;;;;;;0.98;0.98;;;;;;;21.53;44.53;101530.47;5034688;28;20117;-43
2022/06/02 03:00:40;;;;;;;4.85;0.77;;;;;;;21.55;43.94;101525.25;5048442;28;20025;-44
2022/06/02 03:03:20;;;;;;;0.90;0.90;;;;;;;21.55;44.18;101531.38;5016964;28;20029;-43
2022/06/02 03:06:04;;;;;;;0.75;0.73;;;;;;;21.55;44.01;101536.63;5017491;28;20040;-42
2022/06/02 03:08:33;;;;;;;0.88;0.80;;;;;;;21.55;44.64;101534.00;5052235;28;20039;-41
2022/06/02 03:11:10;;;;;;;0.85;0.85;;;;;;;21.56;44.30;101542.75;5051499;28;20106;-44
2022/06/02 03:13:44;;;;;;;0.95;0.95;;;;;;;21.55;44.09;101544.47;5034161;28;20078;-43
2022/06/02 03:16:11;;;;;;;0.80;0.80;;;;;;;21.51;44.29;101545.28;5022213;28;20361;-42
2022/06/02 03:19:02;;;;;;;1.63;1.05;;;;;;;21.55;44.08;101549.72;5033302;28;20037;-46
2022/06/02 03:21:36;;;;;;;0.70;0.70;;;;;;;21.57;44.19;101550.63;5042548;28;20425;-44
2022/06/02 03:24:29;;;;;;;0.93;0.90;;;;;;;21.57;44.01;101555.00;5021501;28;20064;-42
2022/06/02 03:27:23;;;;;;;1.00;0.90;;;;;;;21.56;44.12;101556.72;5030798;28;20051;-42
2022/06/02 03:29:57;;;;;;;1.20;1.10;;;;;;;21.56;44.24;101559.34;4996368;28;20113;-43
2022/06/02 03:32:39;;;;;;;0.77;0.77;;;;;;;21.57;44.29;101566.34;5049790;28;20025;-42
2022/06/02 03:35:28;;;;;;;0.68;0.68;;;;;;;21.59;43.58;101563.78;5017223;28;20132;-42
2022/06/02 03:38:26;;;;;;;1.48;1.13;;;;;;;21.58;44.38;101568.13;5024426;28;20029;-43
2022/06/02 03:40:54;;;;;;;1.63;1.10;;;;;;;21.58;44.12;101568.13;4994545;28;20513;-42
2022/06/02 03:43:28;;;;;;;1.85;0.90;;;;;;;21.60;43.77;101571.66;5050714;28;20056;-41
2022/06/02 03:48:46;;;;;;;0.70;0.70;;;;;;;21.59;44.04;101569.88;5102864;22;20059;-38
2022/06/02 03:51:34;;;;;;;1.23;1.13;;;;;;;21.60;43.49;101570.78;5087344;28;20028;-39
2022/06/02 03:54:21;;;;;;;4.22;1.42;;;;;;;21.59;44.02;101571.63;5074029;28;20034;-38
2022/06/02 03:56:47;;;;;;;3.25;0.90;;;;;;;21.58;43.97;101568.13;5073567;28;20553;-39
2022/06/02 03:59:54;;;;;;;0.63;0.63;;;;;;;21.59;43.84;101569.03;5070811;28;20056;-38
2022/06/02 04:02:46;;;;;;;0.90;0.90;;;;;;;21.59;43.83;101575.13;5067272;28;20292;-38
2022/06/02 04:05:42;;;;;;;2.25;1.42;;;;;;;21.60;43.79;101576.91;5054907;28;20040;-37
2022/06/02 04:08:56;;;;;;;0.80;0.80;;;;;;;21.64;43.78;101571.75;5046177;28;20112;-39
2022/06/02 04:14:34;;;;;;;1.33;1.23;;;;;;;21.74;43.49;101578.94;5073190;28;20676;-45
2022/06/02 04:17:06;;;;;;;0.85;0.80;;;;;;;21.79;43.38;101582.53;5055202;28;20094;-40
2022/06/02 04:23:02;;;;;;;1.42;1.00;;;;;;;21.71;43.59;101589.34;5071490;28;20040;-41
2022/06/02 04:26:01;;;;;;;0.75;0.75;;;;;;;21.68;43.64;101586.66;5054822;28;20090;-38
2022/06/02 04:28:38;;;;;;;1.50;0.60;;;;;;;21.65;43.43;101589.22;5042600;28;20389;-38
2022/06/02 04:31:25;;;;;;;4.18;1.08;;;;;;;21.64;43.75;101597.97;5076648;28;20056;-38
2022/06/02 04:34:08;;;;;;;1.20;1.08;;;;;;;21.63;43.77;101590.91;5069186;28;20032;-38
2022/06/02 04:36:33;;;;;;;0.77;0.77;;;;;;;21.63;43.41;101601.41;5069947;28;20031;-38
2022/06/02 04:39:26;;;;;;;1.42;0.90;;;;;;;21.63;43.75;101606.63;5091884;28;20024;-39
2022/06/02 04:42:00;;;;;;;1.00;0.95;;;;;;;21.63;43.64;101617.13;5082163;28;20134;-39
2022/06/02 04:45:12;;;;;;;1.20;1.20;;;;;;;21.61;43.67;101604.00;5077175;28;20041;-38
2022/06/02 04:47:58;;;;;;;0.93;0.80;;;;;;;21.62;43.72;101615.34;5060295;28;20052;-39
2022/06/02 04:50:50;;;;;;;1.00;1.00;;;;;;;21.61;43.90;101619.72;5065561;28;20091;-39
2022/06/02 04:53:39;;;;;;;0.65;0.65;;;;;;;21.62;43.73;101620.59;5037180;28;20029;-39
2022/06/02 04:56:30;;;;;;;1.20;1.17;;;;;;;21.60;43.73;101624.06;5041203;28;20024;-38
2022/06/02 04:59:10;;;;;;;1.33;0.80;;;;;;;21.59;43.56;101622.31;5080037;28;20058;-38
2022/06/02 05:01:44;;;;;;;1.00;1.00;;;;;;;21.59;43.52;101632.78;5056472;28;20067;-38
2022/06/02 05:04:33;;;;;;;0.73;0.65;;;;;;;21.59;43.97;101632.78;5059703;28;20047;-37
2022/06/02 05:07:36;;;;;;;1.13;1.00;;;;;;;21.60;43.89;101634.56;5040290;28;20036;-37
2022/06/02 05:10:06;;;;;;;1.33;1.23;;;;;;;21.57;42.51;101637.13;5083486;28;20028;-38
2022/06/02 05:12:49;;;;;;;0.98;0.95;;;;;;;21.57;43.66;101637.13;5056710;28;20123;-38
2022/06/02 05:15:44;;;;;;;0.82;0.82;;;;;;;21.59;43.58;101638.03;5090290;28;20039;-38
2022/06/02 05:18:54;;;;;;;0.68;0.68;;;;;;;21.59;43.58;101638.03;5052744;28;20522;-39
2022/06/02 05:21:19;;;;;;;0.85;0.82;;;;;;;21.60;43.64;101637.19;5044629;28;20123;-38
2022/06/02 05:24:03;;;;;;;1.73;1.03;;;;;;;21.60;43.65;101639.81;5064589;28;20580;-38
2022/06/02 05:26:56;;;;;;;1.02;1.00;;;;;;;21.61;43.17;101648.56;5093829;28;20272;-38
2022/06/02 05:29:42;;;;;;;1.38;1.00;;;;;;;21.60;43.50;101650.28;5056593;28;20037;-39
2022/06/02 05:32:32;;;;;;;1.58;1.40;;;;;;;21.60;43.39;101652.91;5091754;28;20046;-39
2022/06/02 05:34:58;;;;;;;1.30;1.20;;;;;;;21.63;43.61;101659.06;5094329;28;20485;-38
2022/06/02 05:37:44;;;;;;;3.05;1.00;;;;;;;21.60;43.55;101658.16;5069898;28;20063;-37
2022/06/02 05:40:37;;;;;;;1.25;1.15;;;;;;;21.62;43.61;101658.19;5093428;28;20055;-38
2022/06/02 05:43:17;;;;;;;2.00;1.05;;;;;;;21.60;43.40;101665.16;5072045;28;20044;-38
2022/06/02 05:46:01;;;;;;;1.42;1.00;;;;;;;21.62;43.45;101671.31;5072930;28;20480;-38
2022/06/02 05:48:44;;;;;;;0.75;0.75;;;;;;;21.62;43.46;101673.03;5075990;28;20031;-38
2022/06/02 05:51:27;;;;;;;1.55;1.45;;;;;;;21.53;42.44;101672.00;5082750;28;20036;-38
2022/06/02 05:54:07;;;;;;;1.35;1.25;;;;;;;21.54;43.19;101676.38;5080093;28;20043;-39
2022/06/02 05:56:39;;;;;;;1.15;1.10;;;;;;;21.54;43.18;101665.91;5085530;28;20122;-38
2022/06/02 05:59:13;;;;;;;0.70;0.70;;;;;;;21.57;43.57;101671.19;5086041;28;20020;-41
2022/06/02 06:01:43;;;;;;;3.33;2.40;;;;;;;21.59;43.96;101674.72;5078174;28;20093;-40
2022/06/02 06:04:26;;;;;;;0.77;0.77;;;;;;;21.60;43.83;101676.50;5084601;28;20036;-38
2022/06/02 06:07:01;;;;;;;2.80;1.40;;;;;;;21.60;43.70;101681.75;5073136;28;20376;-38
2022/06/02 06:09:46;;;;;;;0.90;0.90;;;;;;;21.62;43.59;101684.41;5056855;28;20093;-40
2022/06/02 06:12:44;;;;;;;1.45;1.35;;;;;;;21.63;43.73;101680.03;5070406;28;20112;-37
2022/06/02 06:15:13;;;;;;;0.95;0.90;;;;;;;21.64;43.77;101687.09;5058414;28;20024;-39
2022/06/02 06:18:09;;;;;;;3.60;1.63;;;;;;;21.39;42.54;101686.56;5059329;28;20067;-39
2022/06/02 06:21:05;;;;;;;4.78;2.20;;;;;;;18.57;45.86;101675.50;5086868;28;20031;-40
2022/06/02 06:23:46;;;;;;;5.72;2.28;;;;;;;18.50;45.85;101689.13;5081865;28;20035;-41
2022/06/02 06:26:14;;;;;;;2.38;2.13;;;;;;;19.09;45.79;101691.06;5082702;28;20119;-38
2022/06/02 06:29:04;;;;;;;4.60;2.10;;;;;;;19.90;44.84;101699.53;5088613;28;20032;-42
2022/06/02 06:31:44;;;;;;;1.52;1.42;;;;;;;20.38;44.28;101690.31;5078392;28;20111;-45
2022/06/02 06:34:34;;;;;;;7.70;1.83;;;;;;;20.73;44.07;101700.81;5049730;28;20054;-40
2022/06/02 06:37:16;;;;;;;1.05;1.05;;;;;;;20.95;43.35;101703.94;5081894;28;20115;-41
2022/06/02 06:40:19;;;;;;;1.38;1.27;;;;;;;21.09;42.68;101703.38;5065599;28;20071;-40
2022/06/02 06:42:50;;;;;;;1.58;1.48;;;;;;;21.18;42.92;101703.59;5073780;28;20024;-39
2022/06/02 06:45:15;;;;;;;1.30;1.20;;;;;;;21.23;42.85;101712.44;5067960;28;20539;-40
2022/06/02 06:47:44;;;;;;;1.50;1.40;;;;;;;21.28;42.52;101716.03;5081387;28;20052;-37
2022/06/02 06:50:20;;;;;;;1.13;1.02;;;;;;;21.26;42.71;101702.00;5074464;28;20056;-40
2022/06/02 06:53:04;;;;;;;2.60;1.17;;;;;;;21.36;42.35;101715.31;5047901;28;21204;-41
2022/06/02 06:55:51;;;;;;;1.70;1.33;;;;;;;21.39;43.18;101718.00;5085668;28;20099;-40
2022/06/02 06:58:31;;;;;;;1.05;1.05;;;;;;;21.41;42.88;101716.28;5076281;28;20393;-39
2022/06/02 07:01:35;;;;;;;1.20;1.10;;;;;;;21.44;42.91;101726.84;5074789;28;20123;-39
2022/06/02 07:04:15;;;;;;;1.52;1.00;;;;;;;21.44;43.06;101721.59;5086390;28;20067;-40
2022/06/02 07:06:55;;;;;;;5.57;1.10;;;;;;;21.21;42.65;101724.59;5058784;28;20511;-39
2022/06/02 07:09:29;;;;;;;4.40;1.65;;;;;;;21.11;43.11;101725.25;5062131;28;20500;-51
2022/06/02 07:14:54;;;;;;;1.88;1.30;;;;;;;21.34;43.40;101745.84;5062127;28;20190;-48
2022/06/02 07:17:20;;;;;;;1.50;1.23;;;;;;;21.35;42.87;101742.38;5065299;28;20032;-43
2022/06/02 07:19:59;;;;;;;1.48;1.10;;;;;;;21.39;42.72;101738.97;5056669;28;20039;-46
2022/06/02 07:22:42;;;;;;;1.27;0.80;;;;;;;21.42;42.81;101744.28;5044615;28;20438;-45
2022/06/02 07:25:20;;;;;;;2.08;1.50;;;;;;;21.43;42.55;101751.28;5070954;28;20035;-44
2022/06/02 07:27:57;;;;;;;0.82;0.82;;;;;;;21.44;43.19;101753.06;5072987;28;20101;-44
2022/06/02 07:30:47;;;;;;;3.10;1.17;;;;;;;21.42;43.08;101750.41;5051373;28;20028;-45
2022/06/02 07:33:40;;;;;;;4.93;1.05;;;;;;;21.46;43.13;101756.59;5081829;28;20047;-47
2022/06/02 07:36:15;;;;;;;1.27;1.17;;;;;;;21.46;43.26;101767.06;5090760;28;20043;-43
2022/06/02 07:38:59;;;;;;;;;;;;;;;21.48;43.30;101760.13;5072742;28;20028;-46
2022/06/02 07:41:48;;;;;;;0.95;0.95;;;;;;;21.46;42.85;101761.81;5089230;28;19916;-51
2022/06/02 07:44:27;;;;;;;0.90;0.90;;;;;;;21.49;43.42;101771.50;5091580;28;20044;-45
2022/06/02 07:47:15;;;;;;;0.90;0.90;;;;;;;21.48;43.03;101768.00;5090331;28;20036;-50
2022/06/02 07:49:47;;;;;;;1.17;1.08;;;;;;;21.47;43.36;101763.59;5085596;28;21305;-43
2022/06/02 07:52:30;;;;;;;0.93;0.90;;;;;;;21.48;43.15;101765.38;5080782;28;20366;-44
2022/06/02 07:55:11;;;;;;;0.70;0.70;;;;;;;21.50;43.08;101768.03;5086457;28;20031;-43
2022/06/02 07:57:54;;;;;;;1.00;1.00;;;;;;;21.49;42.82;101767.13;5084626;28;20028;-45
2022/06/02 08:00:22;;;;;;;4.78;1.10;;;;;;;21.50;43.46;101770.66;5081288;28;20028;-43
2022/06/02 08:03:02;;;;;;;1.42;1.17;;;;;;;21.44;43.42;101758.28;5064001;28;20044;-46
2022/06/02 08:05:36;;;;;;;1.35;1.23;;;;;;;21.49;43.15;101779.38;5082369;28;20423;-44
2022/06/02 08:08:17;;;;;;;1.67;0.97;;;;;;;21.49;43.24;101777.63;5085640;28;20032;-44
2022/06/02 08:10:43;;;;;;;0.90;0.90;;;;;;;21.49;43.54;101782.00;5056739;28;20035;-47
2022/06/02 08:13:35;;;;;;;1.15;1.15;;;;;;;21.48;43.20;101783.72;5089494;28;20031;-45
2022/06/02 08:16:08;;;;;;;0.90;0.90;;;;;;;21.48;42.89;101786.34;5056735;28;20542;-46
2022/06/02 08:18:42;;;;;;;1.00;1.00;;;;;;;21.48;42.84;101786.34;5047917;28;20024;-47
2022/06/02 08:21:30;;;;;;;2.83;1.27;;;;;;;21.47;43.14;101789.81;5087149;28;20038;-44
2022/06/02 08:24:20;;;;;;;1.23;0.82;;;;;;;21.48;43.30;101790.72;5057785;28;20040;-45
2022/06/02 08:27:06;;;;;;;1.00;1.00;;;;;;;21.49;43.27;101793.34;5087755;28;20027;-45
2022/06/02 08:29:53;;;;;;;0.88;0.77;;;;;;;21.49;43.40;101801.22;5085632;28;20025;-49
2022/06/02 08:32:34;;;;;;;0.95;0.90;;;;;;;21.50;43.09;101802.97;5046452;28;20055;-44
2022/06/02 08:35:15;;;;;;;0.95;0.93;;;;;;;21.44;42.97;101789.75;5079536;28;20036;-45
2022/06/02 08:37:52;;;;;;;0.90;0.90;;;;;;;21.50;43.23;101800.34;5092735;28;20031;-44
2022/06/02 08:40:32;;;;;;;2.13;0.90;;;;;;;21.51;43.37;101807.38;5074473;28;20489;-45
2022/06/02 08:43:19;;;;;;;1.10;1.10;;;;;;;21.49;43.74;101798.59;5082661;28;20033;-44
2022/06/02 08:46:05;;;;;;;5.47;1.20;;;;;;;21.52;43.28;101809.13;5074896;28;20039;-47
2022/06/02 08:48:46;;;;;;;1.20;1.00;;;;;;;21.53;43.45;101805.66;5060358;28;20034;-44
2022/06/02 08:51:56;;;;;;;0.93;0.93;;;;;;;21.56;43.58;101810.97;5094549;28;20031;-48
2022/06/02 08:54:43;;;;;;;4.43;1.05;;;;;;;21.58;43.54;101809.28;5073930;28;20052;-43
2022/06/02 08:57:30;;;;;;;0.95;0.95;;;;;;;21.60;43.47;101812.81;5071037;28;20442;-43
2022/06/02 09:00:07;;;;;;;0.93;0.90;;;;;;;21.62;43.50;101809.34;5090362;28;20032;-45
2022/06/02 09:03:00;;;;;;;3.30;1.52;;;;;;;21.60;43.61;101804.94;5089265;28;20110;-45
2022/06/02 09:05:37;;;;;;;3.42;1.13;;;;;;;21.63;43.23;101805.88;5087774;28;20111;-44
2022/06/02 09:08:14;;;;;;;1.17;1.08;;;;;;;21.62;43.73;101810.25;5088529;28;20107;-48
2022/06/02 09:11:02;;;;;;;0.93;0.82;;;;;;;21.66;43.58;101809.50;5073300;28;20028;-43
2022/06/02 09:14:06;;;;;;;1.42;1.10;;;;;;;21.66;43.47;101816.47;5078924;28;20481;-44
2022/06/02 09:16:37;;;;;;;5.18;1.65;;;;;;;21.65;43.65;101814.69;5082446;28;20077;-46
2022/06/02 09:19:14;;;;;;;1.73;0.93;;;;;;;21.66;43.75;101821.69;5082352;28;20036;-48
2022/06/02 09:22:01;;;;;;;2.35;1.35;;;;;;;21.65;43.46;101825.16;5080525;28;20027;-45
2022/06/02 09:24:33;;;;;;;1.30;1.20;;;;;;;21.59;43.65;101829.41;5074761;28;20031;-47
2022/06/02 09:27:24;;;;;;;1.23;1.13;;;;;;;21.63;43.73;101832.09;5076244;28;20400;-45
2022/06/02 09:29:57;;;;;;;2.45;1.85;;;;;;;21.60;43.98;101836.41;5089226;28;20111;-42
2022/06/02 09:32:31;;;;;;;1.35;1.25;;;;;;;21.60;43.77;101843.41;5070307;28;20120;-45
2022/06/02 09:35:12;;;;;;;1.52;1.42;;;;;;;21.59;43.62;101855.59;5086594;28;20028;-44
2022/06/02 09:38:09;;;;;;;2.50;0.80;;;;;;;21.58;43.97;101851.22;5083861;28;20033;-44
2022/06/02 09:40:44;;;;;;;1.90;1.02;;;;;;;21.58;43.91;101851.22;5064251;28;20047;-47
2022/06/02 09:43:12;;;;;;;;;;;;;;;21.58;43.84;101851.22;5068191;28;20050;-46
2022/06/02 09:46:04;;;;;;;4.57;1.67;;;;;;;21.58;43.91;101861.69;5062510;28;20007;-43
2022/06/02 09:48:58;;;;;;;1.73;1.52;;;;;;;21.58;43.79;101855.59;5065158;28;20093;-42
2022/06/02 09:51:45;;;;;;;2.07;1.00;;;;;;;21.59;43.87;101862.59;5167290;22;20098;-48
2022/06/02 09:54:32;;;;;;;1.52;1.15;;;;;;;21.58;43.73;101856.47;5070822;28;20273;-46
2022/06/02 10:00:18;;;;;;;1.00;1.00;;;;;;;21.60;43.95;101860.00;5085316;28;20173;-45
2022/06/02 10:03:03;;;;;;;2.58;1.58;;;;;;;21.60;43.78;101854.75;5074462;28;20040;-45
2022/06/02 10:05:59;;;;;;;2.65;1.10;;;;;;;21.61;44.02;101855.66;5075196;28;20047;-42
2022/06/02 10:08:46;;;;;;;1.50;1.38;;;;;;;21.60;44.03;101865.25;5080945;28;20047;-43
2022/06/02 10:11:23;;;;;;;4.20;1.33;;;;;;;21.59;44.03;101868.72;5073948;28;20039;-46
2022/06/02 10:14:22;;;;;;;1.10;1.00;;;;;;;21.59;43.99;101873.09;5074742;28;20392;-43
2022/06/02 10:17:13;;;;;;;2.10;1.05;;;;;;;21.59;44.09;101878.34;5082926;28;20377;-45
2022/06/02 10:19:56;;;;;;;0.75;0.75;;;;;;;21.58;44.09;101873.94;5072536;28;20476;-45
2022/06/02 10:22:58;;;;;;;1.35;1.00;;;;;;;21.59;43.99;101886.19;5089335;28;20425;-48
2022/06/02 10:25:39;;;;;;;0.88;0.88;;;;;;;21.60;44.06;101875.72;5085184;28;20408;-44
2022/06/02 10:28:26;;;;;;;1.02;1.02;;;;;;;21.62;43.46;101878.41;5067515;28;20025;-50
2022/06/02 10:31:09;;;;;;;1.30;1.20;;;;;;;21.64;44.33;101865.34;5091911;28;20563;-44
2022/06/02 10:33:53;;;;;;;1.13;1.02;;;;;;;21.66;43.83;101871.50;5067991;28;20033;-41
2022/06/02 10:36:39;;;;;;;1.33;1.23;;;;;;;21.70;44.35;101865.47;5073503;28;20130;-44
2022/06/02 10:39:13;;;;;;;1.00;1.00;;;;;;;21.70;43.56;101866.38;5056239;28;20287;-44
2022/06/02 10:42:01;;;;;;;1.35;1.25;;;;;;;21.71;43.97;101867.25;5071570;28;20126;-42
2022/06/02 10:45:06;;;;;;;1.02;0.95;;;;;;;21.71;43.93;101872.50;5077398;28;20072;-42
2022/06/02 10:47:50;;;;;;;4.70;1.30;;;;;;;21.68;43.85;101878.56;5047376;28;20131;-44
2022/06/02 10:50:32;;;;;;;2.70;1.40;;;;;;;21.66;44.17;101885.53;5085643;28;20123;-42
2022/06/02 10:53:18;;;;;;;2.17;1.48;;;;;;;21.65;44.07;101888.09;5085391;28;20024;-41
2022/06/02 10:56:03;;;;;;;3.25;1.63;;;;;;;21.64;44.08;101896.81;5088633;28;20040;-46
2022/06/02 10:58:42;;;;;;;;;;;;;;;21.63;43.96;101900.25;5067738;28;20027;-44
2022/06/02 11:01:46;;;;;;;1.75;1.65;;;;;;;21.63;44.00;101895.00;5073357;28;19923;-47
2022/06/02 11:04:15;;;;;;;4.78;1.85;;;;;;;20.93;42.31;101912.53;5028834;28;20086;-48
2022/06/02 11:07:17;;;;;;;2.42;1.80;;;;;;;20.27;42.97;101898.44;5081164;28;20513;-44
2022/06/02 11:10:02;;;;;;;1.85;1.50;;;;;;;20.62;44.15;101895.94;5088660;28;20028;-48
2022/06/02 11:12:38;;;;;;;5.13;1.77;;;;;;;20.97;44.30;101898.66;5053427;28;20077;-42
2022/06/02 11:15:04;;;;;;;1.05;1.05;;;;;;;21.18;44.45;101902.69;5074623;28;20035;-45
2022/06/02 11:17:42;;;;;;;1.52;1.42;;;;;;;21.32;43.88;101908.28;5067703;28;20028;-42
2022/06/02 11:20:20;;;;;;;1.38;1.27;;;;;;;21.43;43.99;101891.06;5079391;28;20036;-41
2022/06/02 11:23:03;;;;;;;2.58;1.80;;;;;;;21.50;43.52;101899.97;5039056;28;20397;-47
2022/06/02 11:25:40;;;;;;;2.33;1.67;;;;;;;21.57;43.59;101899.25;5072081;28;20032;-44
2022/06/02 11:28:35;;;;;;;2.22;1.88;;;;;;;21.59;43.92;101899.31;5054308;28;20033;-46
2022/06/02 11:31:16;;;;;;;2.30;1.38;;;;;;;21.59;43.60;101894.94;5069433;28;20032;-40
2022/06/02 11:33:44;;;;;;;2.28;1.63;;;;;;;21.59;44.06;101892.31;5077465;28;20584;-44
2022/06/02 11:36:37;;;;;;;1.98;1.85;;;;;;;21.60;43.86;101896.69;5075807;28;20443;-43
2022/06/02 11:39:20;;;;;;;2.08;1.65;;;;;;;21.62;43.76;101898.47;5075766;28;20073;-46
2022/06/02 11:41:53;;;;;;;3.53;1.40;;;;;;;21.62;43.88;101901.09;5091895;28;20093;-43
2022/06/02 11:44:54;;;;;;;1.60;1.50;;;;;;;21.60;44.24;101901.94;5080774;28;20085;-41
2022/06/02 11:47:48;;;;;;;1.67;1.30;;;;;;;21.60;43.75;101906.31;5082659;28;20074;-43
2022/06/02 11:50:24;;;;;;;5.68;1.88;;;;;;;21.59;44.12;101918.53;5056596;28;20485;-46
2022/06/02 11:53:21;;;;;;;11.65;1.92;;;;;;;21.58;43.90;101914.13;5072213;28;20103;-42
2022/06/02 11:55:58;;;;;;;1.75;1.60;;;;;;;21.58;44.23;101919.38;5089264;28;20414;-42
2022/06/02 11:58:39;;;;;;;1.63;1.27;;;;;;;21.58;44.10;101918.50;5050424;28;20463;-44
2022/06/02 12:01:27;;;;;;;2.00;1.40;;;;;;;21.57;43.78;101922.84;5066084;28;20115;-45
2022/06/02 12:04:20;;;;;;;2.45;1.55;;;;;;;21.57;43.91;101920.22;5071395;28;20048;-44
2022/06/02 12:07:06;;;;;;;1.20;1.10;;;;;;;21.60;44.56;101912.44;5061131;28;20070;-45
2022/06/02 12:09:57;;;;;;;2.55;1.50;;;;;;;21.64;44.20;101912.53;5070207;28;20041;-47
2022/06/02 12:12:56;;;;;;;3.22;1.52;;;;;;;21.70;43.99;101912.69;5066420;28;20062;-43
2022/06/02 12:15:47;;;;;;;1.20;1.15;;;;;;;21.74;43.78;101914.56;5073622;28;20039;-41
2022/06/02 12:18:37;;;;;;;1.25;1.17;;;;;;;21.76;43.62;101912.84;5087038;28;20589;-51
2022/06/02 12:21:25;;;;;;;1.55;1.42;;;;;;;21.74;43.49;101909.31;5074901;28;20032;-49
2022/06/02 12:24:12;;;;;;;2.00;1.17;;;;;;;21.73;43.53;101902.25;5069807;28;20039;-41
2022/06/02 12:27:15;;;;;;;2.15;1.67;;;;;;;21.77;43.70;101914.63;5081090;28;20507;-42
2022/06/02 12:30:04;;;;;;;1.50;1.40;;;;;;;21.80;43.74;101904.19;5063104;28;20032;-42
2022/06/02 12:32:32;;;;;;;1.23;1.13;;;;;;;21.78;43.62;101916.41;5043900;28;20104;-42
2022/06/02 12:35:25;;;;;;;2.53;1.60;;;;;;;21.79;43.55;101907.69;5089943;28;20024;-44
2022/06/02 12:37:56;;;;;;;3.83;1.88;;;;;;;21.80;43.50;101898.97;5086116;28;20477;-41
2022/06/02 12:40:38;;;;;;;2.08;1.42;;;;;;;21.80;43.61;101903.31;5092004;28;20028;-50
2022/06/02 12:43:36;;;;;;;2.42;1.20;;;;;;;21.79;43.51;101907.69;5094846;28;20039;-50
2022/06/02 12:46:11;;;;;;;3.95;1.30;;;;;;;21.78;43.38;101907.63;5084673;28;20033;-42
2022/06/02 12:49:07;;;;;;;3.17;1.58;;;;;;;21.77;43.88;101904.13;5090234;28;20047;-43
2022/06/02 12:51:38;;;;;;;1.30;1.17;;;;;;;21.77;43.81;101914.63;5090906;28;20044;-44
2022/06/02 12:54:22;;;;;;;6.68;1.58;;;;;;;21.77;43.66;101925.13;5075458;28;20059;-46
2022/06/02 12:57:02;;;;;;;2.03;1.07;;;;;;;21.77;43.76;101925.13;5092502;28;20040;-43
2022/06/02 12:59:48;;;;;;;1.88;1.33;;;;;;;21.83;43.72;101919.09;5087452;28;20040;-44
2022/06/02 13:02:22;;;;;;;1.40;1.30;;;;;;;21.86;43.69;101914.84;5077021;28;20036;-49